Time,TemperatureF,DewpointF,PressureIn,WindDirection,WindDirectionDegrees,WindSpeedMPH,WindSpeedGustMPH,Humidity,HourlyPrecipIn,Conditions,Clouds,dailyrainin,SoftwareType,DateUTC
2013-05-18 00:01:00,61.3,21.1,29.99,SSE,147,0.0,0.0,21,0.00,,BKN120,0.00,VWS V14.01,2013-05-18 04:01:00,
2013-05-18 00:02:00,61.3,21.1,29.99,SSE,147,0.0,0.0,21,0.00,,BKN120,0.00,VWS V14.01,2013-05-18 04:02:00,
2013-05-18 00:03:00,61.3,21.1,29.99,SSE,147,0.0,0.0,21,0.00,,BKN120,0.00,VWS V14.01,2013-05-18 04:03:00,
2013-05-18 00:08:00,61.3,21.1,29.99,SSE,147,0.0,0.0,21,0.00,,BKN120,0.00,VWS V14.01,2013-05-18 04:08:00,
2013-05-18 00:13:00,61.2,20.9,29.99,SSE,147,0.0,0.0,21,0.00,,BKN120,0.00,VWS V14.01,2013-05-18 04:13:00,
2013-05-18 00:18:00,61.2,20.9,29.99,SSE,147,0.0,0.0,21,0.00,,BKN120,0.00,VWS V14.01,2013-05-18 04:18:00,
2013-05-18 00:23:00,61.3,21.1,29.99,SSE,147,0.0,0.0,21,0.00,,BKN120,0.00,VWS V14.01,2013-05-18 04:23:00,
2013-05-18 00:28:00,61.5,21.2,29.99,SSE,147,0.0,0.0,21,0.00,,BKN120,0.00,VWS V14.01,2013-05-18 04:28:00,
2013-05-18 00:33:00,61.3,21.1,29.99,SSE,147,0.0,0.0,21,0.00,,BKN120,0.00,VWS V14.01,2013-05-18 04:33:00,
2013-05-18 00:38:00,61.3,21.1,29.99,SSE,147,0.0,0.0,21,0.00,,BKN120,0.00,VWS V14.01,2013-05-18 04:38:00,
2013-05-18 00:43:00,61.2,20.9,29.99,SSE,147,0.0,0.0,21,0.00,,BKN120,0.00,VWS V14.01,2013-05-18 04:43:00,
2013-05-18 00:48:00,61.2,20.9,29.99,SSE,147,0.0,0.0,21,0.00,,BKN120,0.00,VWS V14.01,2013-05-18 04:48:00,
2013-05-18 00:53:00,61.0,20.8,29.99,SSE,147,0.0,0.0,21,0.00,,BKN120,0.00,VWS V14.01,2013-05-18 04:53:00,
2013-05-18 00:59:00,61.0,20.8,29.99,SSE,147,0.0,0.0,21,0.00,,BKN120,0.00,VWS V14.01,2013-05-18 04:59:00,
2013-05-18 01:04:00,61.0,20.8,29.99,SSE,147,2.2,2.2,21,0.00,,SCT110,0.00,VWS V14.01,2013-05-18 05:04:00,
2013-05-18 01:09:00,61.0,20.8,29.99,SSE,148,2.2,2.7,21,0.00,,SCT110,0.00,VWS V14.01,2013-05-18 05:09:00,
2013-05-18 01:14:00,61.0,20.8,29.99,SSE,148,0.0,0.0,21,0.00,,SCT110,0.00,VWS V14.01,2013-05-18 05:14:00,
2013-05-18 01:19:00,61.0,20.8,29.99,SSE,147,0.0,0.0,21,0.00,,SCT110,0.00,VWS V14.01,2013-05-18 05:19:00,
2013-05-18 01:24:00,60.6,21.6,29.99,SSE,147,0.0,0.0,22,0.00,,SCT110,0.00,VWS V14.01,2013-05-18 05:24:00,
2013-05-18 01:29:00,60.4,21.4,29.99,SSE,147,0.0,0.0,22,0.00,,SCT110,0.00,VWS V14.01,2013-05-18 05:29:00,
2013-05-18 01:34:00,60.4,21.4,29.99,SSE,147,0.0,0.0,22,0.00,,SCT110,0.00,VWS V14.01,2013-05-18 05:34:00,
2013-05-18 01:39:00,60.4,21.4,29.99,SSE,148,0.0,2.2,22,0.00,,SCT110,0.00,VWS V14.01,2013-05-18 05:39:00,
2013-05-18 01:44:00,60.6,21.6,29.99,SSE,147,0.0,0.0,22,0.00,,SCT110,0.00,VWS V14.01,2013-05-18 05:44:00,
2013-05-18 01:49:00,60.6,21.6,29.96,SSE,147,0.0,2.7,22,0.00,,SCT110,0.00,VWS V14.01,2013-05-18 05:49:00,
2013-05-18 01:54:00,60.8,20.6,29.96,SSE,147,0.0,0.0,21,0.00,,SCT110,0.00,VWS V14.01,2013-05-18 05:54:00,
2013-05-18 01:59:00,61.0,24.0,29.96,SSE,147,0.0,0.0,24,0.00,,SCT110,0.00,VWS V14.01,2013-05-18 05:59:00,
2013-05-18 02:05:00,61.2,20.9,29.96,SSE,148,0.0,0.0,21,0.00,,CLR,0.00,VWS V14.01,2013-05-18 06:05:00,
2013-05-18 02:10:00,61.3,21.1,29.96,SSE,147,0.0,0.0,21,0.00,,CLR,0.00,VWS V14.01,2013-05-18 06:10:00,
2013-05-18 02:15:00,61.5,21.2,29.96,SSE,147,2.2,2.2,21,0.00,,CLR,0.00,VWS V14.01,2013-05-18 06:15:00,
2013-05-18 02:20:00,61.7,21.4,29.96,SSE,147,0.0,0.0,21,0.00,,CLR,0.00,VWS V14.01,2013-05-18 06:20:00,
2013-05-18 02:25:00,61.7,21.4,29.96,SSE,148,0.0,0.0,21,0.00,,CLR,0.00,VWS V14.01,2013-05-18 06:25:00,
2013-05-18 02:30:00,61.9,21.5,29.96,SSE,147,0.0,0.0,21,0.00,,CLR,0.00,VWS V14.01,2013-05-18 06:30:00,
2013-05-18 02:35:00,61.9,21.5,29.96,SSE,148,0.0,0.0,21,0.00,,CLR,0.00,VWS V14.01,2013-05-18 06:35:00,
2013-05-18 02:40:00,61.9,21.5,29.96,SSE,148,0.0,0.0,21,0.00,,CLR,0.00,VWS V14.01,2013-05-18 06:40:00,
2013-05-18 02:45:00,61.7,21.4,29.96,SSE,148,0.0,0.0,21,0.00,,CLR,0.00,VWS V14.01,2013-05-18 06:45:00,
2013-05-18 02:50:00,61.7,24.6,29.96,SSE,147,0.0,0.0,24,0.00,,CLR,0.00,VWS V14.01,2013-05-18 06:50:00,
2013-05-18 02:56:00,61.7,24.6,29.96,SSE,148,0.0,0.0,24,0.00,,CLR,0.00,VWS V14.01,2013-05-18 06:56:00,
2013-05-18 03:01:00,61.9,24.7,29.96,SSE,147,0.0,0.0,24,0.00,,FEW120,0.00,VWS V14.01,2013-05-18 07:01:00,
2013-05-18 03:06:00,61.9,24.7,29.93,SSE,148,0.0,0.0,24,0.00,,FEW120,0.00,VWS V14.01,2013-05-18 07:06:00,
2013-05-18 03:11:00,61.7,24.6,29.93,SSE,148,2.2,2.7,24,0.00,,FEW120,0.00,VWS V14.01,2013-05-18 07:11:00,
2013-05-18 03:16:00,60.8,24.8,29.93,SSE,148,0.0,0.0,25,0.04,,FEW120,0.04,VWS V14.01,2013-05-18 07:16:00,
2013-05-18 03:21:00,60.1,27.7,29.96,SSE,148,0.0,0.0,29,0.04,,FEW120,0.04,VWS V14.01,2013-05-18 07:21:00,
2013-05-18 03:26:00,59.7,28.3,29.96,NE,42,0.0,0.0,30,0.04,,FEW120,0.04,VWS V14.01,2013-05-18 07:26:00,
2013-05-18 03:31:00,59.5,28.9,29.96,NE,42,0.0,0.0,31,0.04,,FEW120,0.04,VWS V14.01,2013-05-18 07:31:00,
2013-05-18 03:36:00,59.7,31.3,29.96,NE,42,0.0,0.0,34,0.04,,FEW120,0.04,VWS V14.01,2013-05-18 07:36:00,
2013-05-18 03:41:00,59.7,31.3,29.96,NE,42,0.0,0.0,34,0.04,,FEW120,0.04,VWS V14.01,2013-05-18 07:41:00,
2013-05-18 03:46:00,59.7,31.3,29.96,NE,42,0.0,0.0,34,0.08,,FEW120,0.08,VWS V14.01,2013-05-18 07:46:00,
2013-05-18 03:52:00,59.7,31.3,29.96,ENE,69,2.2,4.0,34,0.12,,FEW120,0.12,VWS V14.01,2013-05-18 07:52:00,
2013-05-18 03:57:00,59.5,31.9,29.96,NE,46,2.2,2.2,35,0.12,,FEW120,0.12,VWS V14.01,2013-05-18 07:57:00,
2013-05-18 04:02:00,59.5,31.9,29.96,SW,235,0.0,0.0,35,0.16,,SCT120,0.16,VWS V14.01,2013-05-18 08:02:00,
2013-05-18 04:07:00,59.4,32.4,29.96,SSE,154,2.2,3.1,36,0.20,,SCT120,0.20,VWS V14.01,2013-05-18 08:07:00,
2013-05-18 04:12:00,59.4,32.4,29.96,SE,127,0.0,0.0,36,0.24,,SCT120,0.24,VWS V14.01,2013-05-18 08:12:00,
2013-05-18 04:17:00,59.4,32.4,29.96,SE,127,0.0,0.0,36,0.20,,SCT120,0.24,VWS V14.01,2013-05-18 08:17:00,
2013-05-18 04:22:00,59.4,32.4,29.96,SE,127,0.0,0.0,36,0.28,,SCT120,0.31,VWS V14.01,2013-05-18 08:22:00,
2013-05-18 04:27:00,59.4,32.4,29.96,SE,127,0.0,0.0,36,0.31,,SCT120,0.35,VWS V14.01,2013-05-18 08:27:00,
2013-05-18 04:32:00,59.4,33.1,29.96,SSE,168,0.0,0.0,37,0.39,,SCT120,0.43,VWS V14.01,2013-05-18 08:32:00,
2013-05-18 04:37:00,59.4,33.1,29.96,SSE,168,0.0,0.0,37,0.51,,SCT120,0.55,VWS V14.01,2013-05-18 08:37:00,
2013-05-18 04:42:00,59.2,33.0,29.96,SSE,168,0.0,0.0,37,0.59,,SCT120,0.63,VWS V14.01,2013-05-18 08:42:00,
2013-05-18 04:48:00,59.2,33.0,29.96,SSE,168,0.0,0.0,37,0.59,,SCT120,0.67,VWS V14.01,2013-05-18 08:48:00,
2013-05-18 04:53:00,59.2,33.0,29.96,SSE,168,0.0,0.0,37,0.55,,SCT120,0.67,VWS V14.01,2013-05-18 08:53:00,
2013-05-18 04:58:00,59.2,33.0,29.96,SSE,168,0.0,0.0,37,0.55,,SCT120,0.67,VWS V14.01,2013-05-18 08:58:00,
2013-05-18 05:03:00,59.2,33.0,29.96,SSE,168,0.0,0.0,37,0.51,,RA,0.67,VWS V14.01,2013-05-18 09:03:00,
2013-05-18 05:08:00,59.4,33.1,29.96,SSE,168,0.0,0.0,37,0.51,,RA,0.71,VWS V14.01,2013-05-18 09:08:00,
2013-05-18 05:13:00,59.2,33.0,29.96,SSE,168,0.0,0.0,37,0.55,,RA,0.79,VWS V14.01,2013-05-18 09:13:00,
2013-05-18 05:18:00,59.2,33.6,29.96,SSE,168,0.0,0.0,38,0.59,,RA,0.83,VWS V14.01,2013-05-18 09:18:00,
2013-05-18 05:23:00,59.2,33.6,29.96,SSE,168,0.0,0.0,38,0.51,,RA,0.83,VWS V14.01,2013-05-18 09:23:00,
2013-05-18 05:28:00,59.2,33.6,29.96,SSE,168,0.0,0.0,38,0.51,,RA,0.87,VWS V14.01,2013-05-18 09:28:00,
2013-05-18 05:33:00,59.2,34.3,29.96,SSE,168,0.0,0.0,39,0.51,,RA,0.94,VWS V14.01,2013-05-18 09:33:00,
2013-05-18 05:38:00,59.2,34.3,29.96,SSE,168,0.0,0.0,39,0.39,,RA,0.94,VWS V14.01,2013-05-18 09:38:00,
2013-05-18 05:43:00,59.2,34.3,29.96,SSE,168,0.0,0.0,39,0.35,,RA,0.98,VWS V14.01,2013-05-18 09:43:00,
2013-05-18 05:48:00,59.0,34.7,29.96,SSE,168,0.0,0.0,40,0.31,,RA,0.98,VWS V14.01,2013-05-18 09:48:00,
2013-05-18 05:53:00,59.0,34.7,29.96,SSE,168,0.0,0.0,40,0.31,,RA,0.98,VWS V14.01,2013-05-18 09:53:00,
2013-05-18 05:59:00,59.0,34.7,29.96,SSE,168,0.0,0.0,40,0.31,,RA,0.98,VWS V14.01,2013-05-18 09:59:00,
2013-05-18 06:04:00,59.0,35.3,29.96,SSE,168,0.0,0.0,41,0.31,,RA,0.98,VWS V14.01,2013-05-18 10:04:00,
2013-05-18 06:09:00,59.2,35.5,29.96,SSE,168,0.0,0.0,41,0.28,,RA,0.98,VWS V14.01,2013-05-18 10:09:00,
2013-05-18 06:14:00,59.2,36.1,29.96,SSE,168,0.0,0.0,42,0.20,,RA,0.98,VWS V14.01,2013-05-18 10:14:00,
2013-05-18 06:19:00,59.2,36.7,29.96,SSE,168,0.0,0.0,43,0.20,,RA,1.02,VWS V14.01,2013-05-18 10:19:00,
2013-05-18 06:24:00,59.2,36.7,29.96,SSE,168,3.1,3.1,43,0.20,,RA,1.02,VWS V14.01,2013-05-18 10:24:00,
2013-05-18 06:29:00,59.2,37.3,29.96,SSE,168,2.2,2.2,44,0.12,,RA,1.02,VWS V14.01,2013-05-18 10:29:00,
2013-05-18 06:34:00,59.2,37.3,29.96,South,178,0.0,3.1,44,0.08,,RA,1.02,VWS V14.01,2013-05-18 10:34:00,
2013-05-18 06:39:00,59.2,37.9,29.96,WSW,251,0.0,0.0,45,0.08,,RA,1.02,VWS V14.01,2013-05-18 10:39:00,
2013-05-18 06:45:00,59.2,37.9,29.96,WSW,251,0.0,0.0,45,0.04,,RA,1.02,VWS V14.01,2013-05-18 10:45:00,
2013-05-18 06:50:00,59.2,37.9,29.96,SW,230,0.0,0.0,45,0.04,,RA,1.02,VWS V14.01,2013-05-18 10:50:00,
2013-05-18 06:55:00,59.4,38.0,29.96,ESE,112,3.1,3.1,45,0.04,,RA,1.02,VWS V14.01,2013-05-18 10:55:00,
2013-05-18 07:00:00,59.4,38.6,29.96,SSW,202,0.0,0.0,46,0.04,,RA,1.02,VWS V14.01,2013-05-18 11:00:00,
2013-05-18 07:05:00,59.4,38.6,29.96,WSW,253,0.0,3.1,46,0.04,, +RA,1.02,VWS V14.01,2013-05-18 11:05:00,
2013-05-18 07:10:00,59.2,38.4,29.96,SE,137,0.0,0.0,46,0.04,, +RA,1.02,VWS V14.01,2013-05-18 11:10:00,
2013-05-18 07:15:00,59.2,38.4,29.96,SE,137,0.0,0.0,46,0.04,, +RA,1.06,VWS V14.01,2013-05-18 11:15:00,
2013-05-18 07:20:00,59.4,38.6,29.96,West,261,0.0,0.0,46,0.04,, +RA,1.06,VWS V14.01,2013-05-18 11:20:00,
2013-05-18 07:25:00,59.2,39.0,29.96,SW,217,0.0,0.0,47,0.04,, +RA,1.06,VWS V14.01,2013-05-18 11:25:00,
2013-05-18 07:30:00,59.2,39.0,29.96,SSW,208,0.0,0.0,47,0.08,, +RA,1.10,VWS V14.01,2013-05-18 11:30:00,
2013-05-18 07:36:00,59.4,39.2,29.96,South,177,0.0,2.2,47,0.08,, +RA,1.10,VWS V14.01,2013-05-18 11:36:00,
2013-05-18 07:41:00,59.4,40.2,29.96,SSW,203,0.0,3.6,49,0.08,, +RA,1.10,VWS V14.01,2013-05-18 11:41:00,
2013-05-18 07:46:00,59.4,40.7,29.96,ESE,112,0.0,2.2,50,0.08,, +RA,1.10,VWS V14.01,2013-05-18 11:46:00,
2013-05-18 07:51:00,59.4,40.7,29.96,WSW,241,0.0,3.1,50,0.08,, +RA,1.10,VWS V14.01,2013-05-18 11:51:00,
2013-05-18 07:56:00,59.4,40.7,29.96,WNW,283,0.0,0.0,50,0.08,, +RA,1.10,VWS V14.01,2013-05-18 11:56:00,
2013-05-18 08:01:00,59.5,40.9,29.96,SSW,212,3.1,6.3,50,0.08,,-RA,1.10,VWS V14.01,2013-05-18 12:01:00,
2013-05-18 08:06:00,59.5,40.9,29.96,SW,235,0.0,3.1,50,0.08,,-RA,1.10,VWS V14.01,2013-05-18 12:06:00,
2013-05-18 08:11:00,59.5,40.9,29.96,SE,132,0.0,0.0,50,0.08,,-RA,1.10,VWS V14.01,2013-05-18 12:11:00,
2013-05-18 08:16:00,59.5,40.9,29.96,SW,230,2.2,4.9,50,0.04,,-RA,1.10,VWS V14.01,2013-05-18 12:16:00,
2013-05-18 08:21:00,59.7,41.1,29.99,WNW,282,3.1,3.1,50,0.04,,-RA,1.10,VWS V14.01,2013-05-18 12:21:00,
2013-05-18 08:26:00,59.7,41.1,29.99,West,259,0.0,0.0,50,0.04,,-RA,1.10,VWS V14.01,2013-05-18 12:26:00,
2013-05-18 08:31:00,59.7,41.1,29.99,South,170,0.0,2.2,50,0.00,,-RA,1.10,VWS V14.01,2013-05-18 12:31:00,
2013-05-18 08:37:00,59.9,41.2,29.99,South,170,0.0,0.0,50,0.00,,-RA,1.10,VWS V14.01,2013-05-18 12:37:00,
2013-05-18 08:42:00,60.3,42.1,29.99,WSW,240,0.0,0.0,51,0.00,,-RA,1.10,VWS V14.01,2013-05-18 12:42:00,
2013-05-18 08:47:00,60.6,42.4,29.99,ESE,111,0.0,0.0,51,0.00,,-RA,1.10,VWS V14.01,2013-05-18 12:47:00,
2013-05-18 08:52:00,61.2,42.4,29.99,South,179,0.0,0.0,50,0.00,,-RA,1.10,VWS V14.01,2013-05-18 12:52:00,
2013-05-18 08:57:00,61.3,40.4,29.99,SSE,165,3.6,3.6,46,0.00,,-RA,1.10,VWS V14.01,2013-05-18 12:57:00,
2013-05-18 09:02:00,61.2,39.7,29.99,West,276,0.0,0.0,45,0.00,,RA,1.10,VWS V14.01,2013-05-18 13:02:00,
2013-05-18 09:07:00,61.2,39.7,29.99,SSW,210,0.0,0.0,45,0.00,,RA,1.10,VWS V14.01,2013-05-18 13:07:00,
2013-05-18 09:12:00,61.3,39.8,29.99,SSW,209,0.0,0.0,45,0.00,,RA,1.10,VWS V14.01,2013-05-18 13:12:00,
2013-05-18 09:17:00,61.5,39.4,29.96,East,82,0.0,0.0,44,0.00,,RA,1.10,VWS V14.01,2013-05-18 13:17:00,
2013-05-18 09:22:00,61.2,37.3,29.96,ESE,123,3.6,3.6,41,0.00,,RA,1.10,VWS V14.01,2013-05-18 13:22:00,
2013-05-18 09:28:00,60.6,35.5,29.96,West,261,4.0,4.0,39,0.00,,RA,1.10,VWS V14.01,2013-05-18 13:28:00,
2013-05-18 09:33:00,60.3,35.2,29.99,WNW,300,0.0,0.0,39,0.00,,RA,1.10,VWS V14.01,2013-05-18 13:33:00,
2013-05-18 09:38:00,60.3,35.9,29.99,SSE,151,0.0,0.0,40,0.00,,RA,1.10,VWS V14.01,2013-05-18 13:38:00,
2013-05-18 09:43:00,60.1,35.7,29.99,SSE,168,0.0,0.0,40,0.00,,RA,1.10,VWS V14.01,2013-05-18 13:43:00,
2013-05-18 09:48:00,59.7,35.4,29.99,West,263,0.0,0.0,40,0.00,,RA,1.10,VWS V14.01,2013-05-18 13:48:00,
2013-05-18 09:53:00,59.9,35.5,29.99,SW,224,0.0,2.7,40,0.00,,RA,1.10,VWS V14.01,2013-05-18 13:53:00,
2013-05-18 09:58:00,60.1,35.7,29.99,SE,125,0.0,0.0,40,0.00,,RA,1.10,VWS V14.01,2013-05-18 13:58:00,
2013-05-18 10:03:00,60.3,36.5,29.99,WSW,252,0.0,0.0,41,0.00,,,1.10,VWS V14.01,2013-05-18 14:03:00,
2013-05-18 10:08:00,60.6,36.8,29.99,East,90,4.0,4.0,41,0.00,,,1.10,VWS V14.01,2013-05-18 14:08:00,
2013-05-18 10:13:00,60.6,34.9,29.99,SW,234,0.0,0.0,38,0.00,,,1.10,VWS V14.01,2013-05-18 14:13:00,
2013-05-18 10:18:00,61.0,35.9,29.99,SSE,148,0.0,0.0,39,0.00,,,1.10,VWS V14.01,2013-05-18 14:18:00,
2013-05-18 10:24:00,61.3,35.5,29.99,NE,51,0.0,3.1,38,0.00,,,1.10,VWS V14.01,2013-05-18 14:24:00,
2013-05-18 10:29:00,61.3,34.9,29.99,West,265,3.6,5.8,37,0.00,,,1.10,VWS V14.01,2013-05-18 14:29:00,
2013-05-18 10:34:00,61.2,34.0,29.99,SSE,152,2.7,2.7,36,0.00,,,1.10,VWS V14.01,2013-05-18 14:34:00,
2013-05-18 10:39:00,61.2,34.0,29.99,SW,235,0.0,2.7,36,0.00,,,1.10,VWS V14.01,2013-05-18 14:39:00,
2013-05-18 10:44:00,61.3,34.9,29.99,WSW,244,0.0,0.0,37,0.00,,,1.10,VWS V14.01,2013-05-18 14:44:00,
2013-05-18 10:49:00,61.0,33.2,29.96,SE,132,3.1,3.1,35,0.00,,,1.10,VWS V14.01,2013-05-18 14:49:00,
2013-05-18 10:54:00,60.8,33.0,29.96,SW,236,0.0,3.6,35,0.00,,,1.10,VWS V14.01,2013-05-18 14:54:00,
2013-05-18 10:59:00,60.6,32.8,29.96,SE,144,5.4,6.3,35,0.00,,,1.10,VWS V14.01,2013-05-18 14:59:00,
2013-05-18 11:04:00,60.4,33.4,29.99,East,79,0.0,0.0,36,0.00,,-RA,1.10,VWS V14.01,2013-05-18 15:04:00,
2013-05-18 11:09:00,60.3,33.2,29.99,SE,145,3.6,3.6,36,0.00,,-RA,1.10,VWS V14.01,2013-05-18 15:09:00,
2013-05-18 11:14:00,60.4,34.1,29.99,SSE,164,0.0,0.0,37,0.00,,-RA,1.10,VWS V14.01,2013-05-18 15:14:00,
2013-05-18 11:19:00,60.4,34.1,29.99,SSE,165,0.0,0.0,37,0.00,,-RA,1.10,VWS V14.01,2013-05-18 15:19:00,
2013-05-18 11:24:00,60.4,34.1,29.99,ESE,118,0.0,0.0,37,0.00,,-RA,1.10,VWS V14.01,2013-05-18 15:24:00,
2013-05-18 11:29:00,60.1,33.8,29.99,ESE,118,0.0,0.0,37,0.00,,-RA,1.10,VWS V14.01,2013-05-18 15:29:00,
2013-05-18 11:34:00,59.9,34.2,29.99,SSW,202,0.0,0.0,38,0.00,,-RA,1.10,VWS V14.01,2013-05-18 15:34:00,
2013-05-18 11:40:00,60.3,34.6,29.99,WSW,249,4.5,6.3,38,0.04,,-RA,1.14,VWS V14.01,2013-05-18 15:40:00,
2013-05-18 11:45:00,60.8,35.1,29.99,SE,144,0.0,4.9,38,0.04,,-RA,1.14,VWS V14.01,2013-05-18 15:45:00,
2013-05-18 11:50:00,61.0,35.2,29.99,SSE,165,0.0,0.0,38,0.04,,-RA,1.14,VWS V14.01,2013-05-18 15:50:00,
2013-05-18 11:55:00,61.0,34.5,29.99,SW,235,0.0,0.0,37,0.04,,-RA,1.14,VWS V14.01,2013-05-18 15:55:00,
2013-05-18 12:00:00,61.0,34.5,29.99,SSW,192,2.2,2.2,37,0.04,,-RA,1.14,VWS V14.01,2013-05-18 16:00:00,
2013-05-18 12:05:00,60.4,34.1,29.99,ESE,119,0.0,0.0,37,0.04,,OVC070,1.14,VWS V14.01,2013-05-18 16:05:00,
2013-05-18 12:10:00,60.1,33.1,29.99,WSW,250,2.7,2.7,36,0.04,,OVC070,1.14,VWS V14.01,2013-05-18 16:10:00,
2013-05-18 12:15:00,60.3,33.9,29.99,SW,220,0.0,0.0,37,0.04,,OVC070,1.14,VWS V14.01,2013-05-18 16:15:00,
2013-05-18 12:20:00,60.4,34.1,29.99,SW,218,0.0,2.7,37,0.04,,OVC070,1.14,VWS V14.01,2013-05-18 16:20:00,
2013-05-18 12:25:00,60.6,34.9,29.99,WSW,248,0.0,0.0,38,0.04,,OVC070,1.14,VWS V14.01,2013-05-18 16:25:00,
2013-05-18 12:30:00,61.0,33.9,29.99,SSE,158,0.0,5.4,36,0.04,,OVC070,1.14,VWS V14.01,2013-05-18 16:30:00,
2013-05-18 12:35:00,61.2,34.0,29.99,WSW,252,2.2,3.6,36,0.04,,OVC070,1.14,VWS V14.01,2013-05-18 16:35:00,
2013-05-18 12:41:00,61.3,34.2,29.99,WSW,252,0.0,2.7,36,0.00,,OVC070,1.14,VWS V14.01,2013-05-18 16:41:00,
2013-05-18 12:46:00,61.3,34.2,29.99,West,259,2.2,4.0,36,0.00,,OVC070,1.14,VWS V14.01,2013-05-18 16:46:00,
2013-05-18 12:51:00,61.3,34.2,29.96,SSW,208,2.2,2.7,36,0.00,,OVC070,1.14,VWS V14.01,2013-05-18 16:51:00,
2013-05-18 12:56:00,61.2,34.0,29.96,SSW,208,0.0,0.0,36,0.00,,OVC070,1.14,VWS V14.01,2013-05-18 16:56:00,
2013-05-18 13:01:00,61.0,33.9,29.96,SE,130,0.0,0.0,36,0.00,,-RA,1.14,VWS V14.01,2013-05-18 17:01:00,
2013-05-18 13:06:00,61.2,34.0,29.96,East,95,0.0,0.0,36,0.00,,-RA,1.14,VWS V14.01,2013-05-18 17:06:00,
2013-05-18 13:11:00,61.0,33.9,29.96,SW,220,0.0,2.7,36,0.00,,-RA,1.14,VWS V14.01,2013-05-18 17:11:00,
2013-05-18 13:16:00,61.2,34.0,29.96,SW,217,0.0,0.0,36,0.00,,-RA,1.14,VWS V14.01,2013-05-18 17:16:00,
2013-05-18 13:22:00,61.2,34.0,29.96,SE,144,4.9,4.9,36,0.00,,-RA,1.14,VWS V14.01,2013-05-18 17:22:00,
2013-05-18 13:27:00,61.3,34.2,29.96,SSE,159,3.1,3.1,36,0.00,,-RA,1.14,VWS V14.01,2013-05-18 17:27:00,
2013-05-18 13:32:00,61.7,35.2,29.96,WSW,249,0.0,0.0,37,0.00,,-RA,1.14,VWS V14.01,2013-05-18 17:32:00,
2013-05-18 13:37:00,61.7,34.5,29.96,SSE,152,0.0,0.0,36,0.00,,-RA,1.14,VWS V14.01,2013-05-18 17:37:00,
2013-05-18 13:42:00,61.9,34.7,29.96,SSE,159,0.0,0.0,36,0.00,,-RA,1.14,VWS V14.01,2013-05-18 17:42:00,
2013-05-18 13:47:00,61.7,33.8,29.96,SSE,158,0.0,0.0,35,0.00,,-RA,1.14,VWS V14.01,2013-05-18 17:47:00,
2013-05-18 13:52:00,61.5,34.3,29.96,SSE,158,0.0,0.0,36,0.00,,-RA,1.14,VWS V14.01,2013-05-18 17:52:00,
2013-05-18 13:57:00,61.3,34.2,29.96,SW,229,0.0,0.0,36,0.00,,-RA,1.14,VWS V14.01,2013-05-18 17:57:00,
2013-05-18 14:02:00,61.3,34.2,29.96,WSW,240,0.0,4.0,36,0.00,,OVC035,1.14,VWS V14.01,2013-05-18 18:02:00,
2013-05-18 14:07:00,61.3,34.2,29.96,SW,222,3.6,4.9,36,0.00,,OVC035,1.14,VWS V14.01,2013-05-18 18:07:00,
2013-05-18 14:12:00,61.0,33.9,29.96,SW,217,0.0,4.9,36,0.00,,OVC035,1.14,VWS V14.01,2013-05-18 18:12:00,
2013-05-18 14:18:00,60.8,33.7,29.96,SE,138,0.0,2.7,36,0.00,,OVC035,1.14,VWS V14.01,2013-05-18 18:18:00,
2013-05-18 14:23:00,60.6,33.5,29.96,SE,138,0.0,0.0,36,0.00,,OVC035,1.14,VWS V14.01,2013-05-18 18:23:00,
2013-05-18 14:28:00,60.6,34.2,29.96,SE,138,0.0,0.0,37,0.00,,OVC035,1.14,VWS V14.01,2013-05-18 18:28:00,
2013-05-18 14:33:00,60.6,34.2,29.96,SSW,193,0.0,0.0,37,0.00,,OVC035,1.14,VWS V14.01,2013-05-18 18:33:00,
2013-05-18 14:38:00,60.6,34.2,29.96,SSW,203,0.0,0.0,37,0.00,,OVC035,1.14,VWS V14.01,2013-05-18 18:38:00,
2013-05-18 14:43:00,61.0,34.5,29.96,SSW,203,0.0,0.0,37,0.00,,OVC035,1.14,VWS V14.01,2013-05-18 18:43:00,
2013-05-18 14:48:00,61.2,34.7,29.96,SW,235,2.2,3.1,37,0.00,,OVC035,1.14,VWS V14.01,2013-05-18 18:48:00,
2013-05-18 14:53:00,61.9,36.0,29.96,SW,233,2.7,2.7,38,0.00,,OVC035,1.14,VWS V14.01,2013-05-18 18:53:00,
2013-05-18 14:58:00,62.6,36.7,29.96,SE,126,0.0,2.7,38,0.00,,OVC035,1.14,VWS V14.01,2013-05-18 18:58:00,
2013-05-18 15:03:00,63.5,36.1,29.96,SSE,163,0.0,4.0,36,0.00,,OVC044,1.14,VWS V14.01,2013-05-18 19:03:00,
2013-05-18 15:08:00,63.7,36.2,29.96,SSE,150,0.0,2.7,36,0.00,,OVC044,1.14,VWS V14.01,2013-05-18 19:08:00,
2013-05-18 15:13:00,63.1,34.3,29.96,SW,220,0.0,3.6,34,0.00,,OVC044,1.14,VWS V14.01,2013-05-18 19:13:00,
2013-05-18 15:19:00,62.6,33.9,29.96,SSE,160,0.0,0.0,34,0.00,,OVC044,1.14,VWS V14.01,2013-05-18 19:19:00,
2013-05-18 15:24:00,61.9,33.2,29.96,South,176,3.1,4.0,34,0.00,,OVC044,1.14,VWS V14.01,2013-05-18 19:24:00,
2013-05-18 15:29:00,61.5,32.9,29.96,South,181,0.0,0.0,34,0.00,,OVC044,1.14,VWS V14.01,2013-05-18 19:29:00,
2013-05-18 15:34:00,61.5,33.6,29.96,SE,128,0.0,2.2,35,0.00,,OVC044,1.14,VWS V14.01,2013-05-18 19:34:00,
2013-05-18 15:39:00,61.5,33.6,29.96,SE,136,0.0,2.2,35,0.00,,OVC044,1.14,VWS V14.01,2013-05-18 19:39:00,
2013-05-18 15:44:00,61.3,34.2,29.96,SSW,200,5.8,5.8,36,0.00,,OVC044,1.14,VWS V14.01,2013-05-18 19:44:00,
2013-05-18 15:49:00,61.2,34.0,29.96,SW,229,0.0,5.8,36,0.00,,OVC044,1.14,VWS V14.01,2013-05-18 19:49:00,
2013-05-18 15:54:00,61.0,33.9,29.96,West,260,0.0,0.0,36,0.00,,OVC044,1.14,VWS V14.01,2013-05-18 19:54:00,
2013-05-18 15:59:00,61.2,34.0,29.96,SE,137,0.0,0.0,36,0.00,,OVC044,1.14,VWS V14.01,2013-05-18 19:59:00,
2013-05-18 16:04:00,61.3,34.9,29.96,SSE,159,0.0,0.0,37,0.00,,OVC024,1.14,VWS V14.01,2013-05-18 20:04:00,
2013-05-18 16:09:00,61.9,35.3,29.96,SE,136,2.7,2.7,37,0.00,,OVC024,1.14,VWS V14.01,2013-05-18 20:09:00,
2013-05-18 16:14:00,62.1,34.8,29.96,East,99,0.0,0.0,36,0.00,,OVC024,1.14,VWS V14.01,2013-05-18 20:14:00,
2013-05-18 16:19:00,62.8,35.5,29.96,SSE,163,0.0,0.0,36,0.00,,OVC024,1.14,VWS V14.01,2013-05-18 20:19:00,
2013-05-18 16:24:00,63.7,36.2,29.96,SSE,157,0.0,0.0,36,0.00,,OVC024,1.14,VWS V14.01,2013-05-18 20:24:00,
2013-05-18 16:30:00,63.5,35.4,29.96,SW,233,0.0,0.0,35,0.00,,OVC024,1.14,VWS V14.01,2013-05-18 20:30:00,
2013-05-18 16:35:00,63.3,35.2,29.96,WNW,290,0.0,2.7,35,0.00,,OVC024,1.14,VWS V14.01,2013-05-18 20:35:00,
2013-05-18 16:40:00,63.0,34.2,29.96,WNW,287,0.0,2.2,34,0.00,,OVC024,1.14,VWS V14.01,2013-05-18 20:40:00,
2013-05-18 16:45:00,62.4,34.4,29.96,WNW,287,0.0,0.0,35,0.00,,OVC024,1.14,VWS V14.01,2013-05-18 20:45:00,
2013-05-18 16:50:00,62.2,34.3,29.96,WNW,287,0.0,0.0,35,0.00,,OVC024,1.14,VWS V14.01,2013-05-18 20:50:00,
2013-05-18 16:55:00,62.1,34.8,29.96,WNW,287,0.0,0.0,36,0.00,,OVC024,1.14,VWS V14.01,2013-05-18 20:55:00,
2013-05-18 17:00:00,61.9,34.7,29.96,South,181,0.0,0.0,36,0.00,,OVC020,1.14,VWS V14.01,2013-05-18 21:00:00,
2013-05-18 17:05:00,61.7,33.8,29.93,SE,143,0.0,0.0,35,0.00,,OVC020,1.14,VWS V14.01,2013-05-18 21:05:00,
2013-05-18 17:11:00,61.7,34.5,29.93,SE,138,0.0,0.0,36,0.00,,OVC020,1.14,VWS V14.01,2013-05-18 21:11:00,
2013-05-18 17:16:00,61.5,34.3,29.93,ESE,120,0.0,0.0,36,0.00,,OVC020,1.14,VWS V14.01,2013-05-18 21:16:00,
2013-05-18 17:21:00,61.5,34.3,29.93,SE,128,0.0,0.0,36,0.00,,OVC020,1.14,VWS V14.01,2013-05-18 21:21:00,
2013-05-18 17:26:00,61.5,34.3,29.93,SE,128,0.0,0.0,36,0.00,,OVC020,1.14,VWS V14.01,2013-05-18 21:26:00,
2013-05-18 17:31:00,61.5,34.3,29.93,SE,128,0.0,0.0,36,0.00,,OVC020,1.14,VWS V14.01,2013-05-18 21:31:00,
2013-05-18 17:36:00,61.5,34.3,29.93,SE,128,0.0,0.0,36,0.00,,OVC020,1.14,VWS V14.01,2013-05-18 21:36:00,
2013-05-18 17:41:00,61.3,34.2,29.93,SE,128,0.0,0.0,36,0.00,,OVC020,1.14,VWS V14.01,2013-05-18 21:41:00,
2013-05-18 17:46:00,61.3,34.9,29.93,SSE,166,0.0,0.0,37,0.00,,OVC020,1.14,VWS V14.01,2013-05-18 21:46:00,
2013-05-18 17:51:00,61.2,34.7,29.93,SE,130,2.2,4.9,37,0.00,,OVC020,1.14,VWS V14.01,2013-05-18 21:51:00,
2013-05-18 17:56:00,61.3,34.9,29.93,SE,125,0.0,0.0,37,0.00,,OVC020,1.14,VWS V14.01,2013-05-18 21:56:00,
2013-05-18 18:01:00,61.3,34.9,29.93,SSE,165,0.0,0.0,37,0.00,,OVC065,1.14,VWS V14.01,2013-05-18 22:01:00,
2013-05-18 18:07:00,61.3,34.9,29.93,SW,236,0.0,0.0,37,0.00,,OVC065,1.14,VWS V14.01,2013-05-18 22:07:00,
2013-05-18 18:12:00,61.3,34.9,29.93,SE,143,0.0,0.0,37,0.00,,OVC065,1.14,VWS V14.01,2013-05-18 22:12:00,
2013-05-18 18:17:00,61.3,34.9,29.93,SE,143,0.0,0.0,37,0.00,,OVC065,1.14,VWS V14.01,2013-05-18 22:17:00,
2013-05-18 18:22:00,61.3,34.9,29.93,SE,146,0.0,0.0,37,0.00,,OVC065,1.14,VWS V14.01,2013-05-18 22:22:00,
2013-05-18 18:27:00,61.3,34.9,29.93,SW,229,0.0,0.0,37,0.00,,OVC065,1.14,VWS V14.01,2013-05-18 22:27:00,
2013-05-18 18:32:00,61.2,34.7,29.93,SSE,159,0.0,0.0,37,0.00,,OVC065,1.14,VWS V14.01,2013-05-18 22:32:00,
2013-05-18 18:37:00,61.2,34.7,29.93,WSW,258,0.0,0.0,37,0.00,,OVC065,1.14,VWS V14.01,2013-05-18 22:37:00,
2013-05-18 18:42:00,61.0,34.5,29.93,SW,234,0.0,0.0,37,0.00,,OVC065,1.14,VWS V14.01,2013-05-18 22:42:00,
2013-05-18 18:47:00,61.0,35.2,29.96,ESE,113,0.0,0.0,38,0.00,,OVC065,1.14,VWS V14.01,2013-05-18 22:47:00,
2013-05-18 18:52:00,61.0,35.2,29.96,SE,125,0.0,0.0,38,0.00,,OVC065,1.14,VWS V14.01,2013-05-18 22:52:00,
2013-05-18 18:58:00,61.0,35.2,29.96,SSE,156,0.0,0.0,38,0.00,,OVC065,1.14,VWS V14.01,2013-05-18 22:58:00,
2013-05-18 19:03:00,61.0,35.2,29.96,SE,137,0.0,0.0,38,0.00,,OVC065,1.14,VWS V14.01,2013-05-18 23:03:00,
2013-05-18 19:08:00,61.2,35.4,29.96,WSW,254,0.0,0.0,38,0.00,,OVC065,1.14,VWS V14.01,2013-05-18 23:08:00,
2013-05-18 19:13:00,61.0,35.2,29.96,SW,221,0.0,2.2,38,0.00,,OVC065,1.14,VWS V14.01,2013-05-18 23:13:00,
2013-05-18 19:18:00,61.0,35.2,29.96,South,190,0.0,0.0,38,0.00,,OVC065,1.14,VWS V14.01,2013-05-18 23:18:00,
2013-05-18 19:23:00,61.0,35.2,29.96,SSE,150,0.0,0.0,38,0.00,,OVC065,1.14,VWS V14.01,2013-05-18 23:23:00,
2013-05-18 19:28:00,61.0,35.9,29.96,SSE,154,0.0,0.0,39,0.00,,OVC065,1.14,VWS V14.01,2013-05-18 23:28:00,
2013-05-18 19:33:00,61.0,35.9,29.96,SSE,154,0.0,0.0,39,0.00,,OVC065,1.14,VWS V14.01,2013-05-18 23:33:00,
2013-05-18 19:38:00,61.0,35.9,29.96,SSE,154,0.0,0.0,39,0.00,,OVC065,1.14,VWS V14.01,2013-05-18 23:38:00,
2013-05-18 19:43:00,61.0,35.9,29.96,SSW,203,0.0,0.0,39,0.00,,OVC065,1.14,VWS V14.01,2013-05-18 23:43:00,
2013-05-18 19:48:00,60.8,35.7,29.96,NNW,345,2.7,4.0,39,0.00,,OVC065,1.14,VWS V14.01,2013-05-18 23:48:00,
2013-05-18 19:53:00,60.8,35.7,29.96,WSW,255,0.0,0.0,39,0.00,,OVC065,1.14,VWS V14.01,2013-05-18 23:53:00,
2013-05-18 19:58:00,60.8,35.7,29.96,WSW,239,0.0,0.0,39,0.00,,OVC065,1.14,VWS V14.01,2013-05-18 23:58:00,
2013-05-18 20:03:00,60.6,36.2,29.96,WSW,240,0.0,0.0,40,0.00,,OVC022,1.14,VWS V14.01,2013-05-19 00:03:00,
2013-05-18 20:08:00,60.6,36.2,29.96,WSW,240,0.0,0.0,40,0.00,,OVC022,1.14,VWS V14.01,2013-05-19 00:08:00,
2013-05-18 20:14:00,60.6,36.2,29.96,WSW,240,0.0,0.0,40,0.00,,OVC022,1.14,VWS V14.01,2013-05-19 00:14:00,
2013-05-18 20:19:00,60.6,36.2,29.96,WSW,240,0.0,0.0,40,0.00,,OVC022,1.14,VWS V14.01,2013-05-19 00:19:00,
2013-05-18 20:24:00,60.8,36.3,29.96,WSW,240,0.0,0.0,40,0.00,,OVC022,1.14,VWS V14.01,2013-05-19 00:24:00,
2013-05-18 20:29:00,60.6,36.2,29.96,SE,135,0.0,0.0,40,0.00,,OVC022,1.14,VWS V14.01,2013-05-19 00:29:00,
2013-05-18 20:34:00,60.6,36.2,29.96,WSW,245,0.0,0.0,40,0.00,,OVC022,1.14,VWS V14.01,2013-05-19 00:34:00,
2013-05-18 20:39:00,60.6,36.2,29.96,ESE,122,0.0,0.0,40,0.00,,OVC022,1.14,VWS V14.01,2013-05-19 00:39:00,
2013-05-18 20:44:00,60.6,36.8,29.96,ESE,122,0.0,0.0,41,0.00,,OVC022,1.14,VWS V14.01,2013-05-19 00:44:00,
2013-05-18 20:49:00,60.6,36.8,29.96,ESE,122,0.0,0.0,41,0.04,,OVC022,1.18,VWS V14.01,2013-05-19 00:49:00,
2013-05-18 20:54:00,60.6,36.8,29.96,ESE,122,0.0,0.0,41,0.04,,OVC022,1.18,VWS V14.01,2013-05-19 00:54:00,
2013-05-18 20:59:00,60.6,36.8,29.96,ESE,122,0.0,0.0,41,0.04,,OVC022,1.18,VWS V14.01,2013-05-19 00:59:00,
2013-05-18 21:04:00,60.6,37.4,29.96,ESE,122,0.0,0.0,42,0.04,,OVC026,1.18,VWS V14.01,2013-05-19 01:04:00,
2013-05-18 21:10:00,60.4,37.3,29.96,ESE,122,0.0,0.0,42,0.04,,OVC026,1.18,VWS V14.01,2013-05-19 01:10:00,
2013-05-18 21:15:00,60.4,37.3,29.96,ESE,122,0.0,0.0,42,0.04,,OVC026,1.18,VWS V14.01,2013-05-19 01:15:00,
2013-05-18 21:20:00,60.4,37.9,29.96,ESE,122,0.0,0.0,43,0.04,,OVC026,1.18,VWS V14.01,2013-05-19 01:20:00,
2013-05-18 21:25:00,60.4,37.9,29.96,ESE,122,0.0,0.0,43,0.04,,OVC026,1.18,VWS V14.01,2013-05-19 01:25:00,
2013-05-18 21:30:00,60.4,37.9,29.96,ESE,122,0.0,0.0,43,0.04,,OVC026,1.18,VWS V14.01,2013-05-19 01:30:00,
2013-05-18 21:35:00,60.4,37.9,29.96,ESE,122,0.0,0.0,43,0.04,,OVC026,1.18,VWS V14.01,2013-05-19 01:35:00,
2013-05-18 21:40:00,60.4,38.4,29.96,ESE,122,0.0,0.0,44,0.04,,OVC026,1.18,VWS V14.01,2013-05-19 01:40:00,
2013-05-18 21:45:00,60.4,38.4,29.96,ESE,122,0.0,0.0,44,0.04,,OVC026,1.18,VWS V14.01,2013-05-19 01:45:00,
2013-05-18 21:50:00,60.4,38.4,29.96,ESE,122,0.0,0.0,44,0.00,,OVC026,1.18,VWS V14.01,2013-05-19 01:50:00,
2013-05-18 21:55:00,60.4,38.4,29.96,ESE,122,0.0,0.0,44,0.00,,OVC026,1.18,VWS V14.01,2013-05-19 01:55:00,
2013-05-18 22:00:00,60.4,39.0,29.96,South,170,0.0,0.0,45,0.00,,OVC026,1.18,VWS V14.01,2013-05-19 02:00:00,
2013-05-18 22:06:00,60.4,39.0,29.96,South,170,0.0,0.0,45,0.00,,OVC026,1.18,VWS V14.01,2013-05-19 02:06:00,
2013-05-18 22:11:00,60.4,39.0,29.96,South,170,0.0,0.0,45,0.00,,OVC026,1.18,VWS V14.01,2013-05-19 02:11:00,
2013-05-18 22:16:00,60.4,39.0,29.96,South,170,0.0,0.0,45,0.00,,OVC026,1.18,VWS V14.01,2013-05-19 02:16:00,
2013-05-18 22:21:00,60.4,39.0,29.96,South,170,0.0,0.0,45,0.00,,OVC026,1.18,VWS V14.01,2013-05-19 02:21:00,
2013-05-18 22:26:00,60.4,39.6,29.96,South,170,0.0,0.0,46,0.00,,OVC026,1.18,VWS V14.01,2013-05-19 02:26:00,
2013-05-18 22:31:00,60.4,39.6,29.96,South,179,0.0,0.0,46,0.00,,OVC026,1.18,VWS V14.01,2013-05-19 02:31:00,
2013-05-18 22:36:00,60.6,40.3,29.96,South,190,3.1,4.5,47,0.00,,OVC026,1.18,VWS V14.01,2013-05-19 02:36:00,
2013-05-18 22:41:00,60.6,40.8,29.96,SW,234,0.0,0.0,48,0.00,,OVC026,1.18,VWS V14.01,2013-05-19 02:41:00,
2013-05-18 22:46:00,60.6,40.8,29.96,WSW,249,0.0,0.0,48,0.00,,OVC026,1.18,VWS V14.01,2013-05-19 02:46:00,
2013-05-18 22:51:00,60.6,40.8,29.96,WSW,249,0.0,0.0,48,0.00,,OVC026,1.18,VWS V14.01,2013-05-19 02:51:00,
2013-05-18 22:57:00,60.6,40.8,29.96,WSW,249,0.0,0.0,48,0.00,,OVC026,1.18,VWS V14.01,2013-05-19 02:57:00,
2013-05-18 23:02:00,60.6,40.8,29.96,WSW,237,0.0,0.0,48,0.00,,OVC028,1.18,VWS V14.01,2013-05-19 03:02:00,
2013-05-18 23:07:00,60.6,40.8,29.96,SW,234,0.0,0.0,48,0.00,,OVC028,1.18,VWS V14.01,2013-05-19 03:07:00,
2013-05-18 23:12:00,60.6,40.8,29.96,South,175,2.2,3.1,48,0.00,,OVC028,1.18,VWS V14.01,2013-05-19 03:12:00,
2013-05-18 23:17:00,60.6,40.8,29.96,South,174,0.0,0.0,48,0.00,,OVC028,1.18,VWS V14.01,2013-05-19 03:17:00,
2013-05-18 23:22:00,60.8,41.0,29.96,South,174,0.0,0.0,48,0.00,,OVC028,1.18,VWS V14.01,2013-05-19 03:22:00,
2013-05-18 23:28:00,60.8,41.5,29.96,South,174,0.0,0.0,49,0.00,,OVC028,1.18,VWS V14.01,2013-05-19 03:28:00,
2013-05-18 23:33:00,60.6,41.9,29.96,WSW,244,0.0,0.0,50,0.00,,OVC028,1.18,VWS V14.01,2013-05-19 03:33:00,
2013-05-18 23:38:00,60.6,41.9,29.96,WSW,244,0.0,0.0,50,0.00,,OVC028,1.18,VWS V14.01,2013-05-19 03:38:00,
2013-05-18 23:43:00,60.6,41.9,29.96,WSW,240,0.0,0.0,50,0.00,,OVC028,1.18,VWS V14.01,2013-05-19 03:43:00,
2013-05-18 23:48:00,60.6,41.9,29.96,SSE,164,0.0,0.0,50,0.00,,OVC028,1.18,VWS V14.01,2013-05-19 03:48:00,
2013-05-18 23:53:00,60.6,41.9,29.96,SSE,164,0.0,0.0,50,0.00,,OVC028,1.18,VWS V14.01,2013-05-19 03:53:00,
2013-05-18 23:58:00,60.6,41.9,29.96,SSE,164,0.0,0.0,50,0.00,,OVC028,1.18,VWS V14.01,2013-05-19 03:58:00,